sensor_id;sensor_type;location;lat;lon;timestamp;temperature;humidity
35635;DHT22;21757;43.610;1.440;2023-05-23T00:00:23;18.10;99.90
35635;DHT22;21757;43.610;1.440;2023-05-23T00:02:49;18.10;99.90
35635;DHT22;21757;43.610;1.440;2023-05-23T00:05:15;18.10;99.90
35635;DHT22;21757;43.610;1.440;2023-05-23T00:07:43;18.10;99.90
35635;DHT22;21757;43.610;1.440;2023-05-23T00:10:09;18.10;99.90
35635;DHT22;21757;43.610;1.440;2023-05-23T00:12:35;18.10;99.90
35635;DHT22;21757;43.610;1.440;2023-05-23T00:15:04;18.00;99.90
35635;DHT22;21757;43.610;1.440;2023-05-23T00:17:34;18.00;99.90
35635;DHT22;21757;43.610;1.440;2023-05-23T00:20:03;18.00;99.90
35635;DHT22;21757;43.610;1.440;2023-05-23T00:22:29;18.00;99.90
35635;DHT22;21757;43.610;1.440;2023-05-23T00:24:54;17.90;99.90
35635;DHT22;21757;43.610;1.440;2023-05-23T00:27:22;18.00;99.90
35635;DHT22;21757;43.610;1.440;2023-05-23T00:29:48;18.00;99.90
35635;DHT22;21757;43.610;1.440;2023-05-23T00:32:13;17.90;99.90
35635;DHT22;21757;43.610;1.440;2023-05-23T00:34:39;17.90;99.90
35635;DHT22;21757;43.610;1.440;2023-05-23T00:37:05;17.90;99.90
35635;DHT22;21757;43.610;1.440;2023-05-23T00:39:31;17.80;99.90
35635;DHT22;21757;43.610;1.440;2023-05-23T00:41:56;17.70;99.90
35635;DHT22;21757;43.610;1.440;2023-05-23T00:44:22;17.60;99.90
35635;DHT22;21757;43.610;1.440;2023-05-23T00:46:53;17.60;99.90
35635;DHT22;21757;43.610;1.440;2023-05-23T00:49:19;17.60;99.90
35635;DHT22;21757;43.610;1.440;2023-05-23T00:51:45;17.60;99.90
35635;DHT22;21757;43.610;1.440;2023-05-23T00:54:12;17.60;99.90
35635;DHT22;21757;43.610;1.440;2023-05-23T00:56:39;17.60;99.90
35635;DHT22;21757;43.610;1.440;2023-05-23T00:59:06;17.50;99.90
35635;DHT22;21757;43.610;1.440;2023-05-23T01:01:32;17.40;99.90
35635;DHT22;21757;43.610;1.440;2023-05-23T01:03:58;17.40;99.90
35635;DHT22;21757;43.610;1.440;2023-05-23T01:06:24;17.40;99.90
35635;DHT22;21757;43.610;1.440;2023-05-23T01:08:50;17.40;99.90
35635;DHT22;21757;43.610;1.440;2023-05-23T01:11:29;17.30;99.90
35635;DHT22;21757;43.610;1.440;2023-05-23T01:14:06;17.40;99.90
35635;DHT22;21757;43.610;1.440;2023-05-23T01:16:56;17.30;99.90
35635;DHT22;21757;43.610;1.440;2023-05-23T01:22:16;17.30;99.90
35635;DHT22;21757;43.610;1.440;2023-05-23T01:25:15;17.30;99.90
35635;DHT22;21757;43.610;1.440;2023-05-23T01:27:52;17.20;99.90
35635;DHT22;21757;43.610;1.440;2023-05-23T01:30:19;17.20;99.90
35635;DHT22;21757;43.610;1.440;2023-05-23T01:37:48;17.20;99.90
35635;DHT22;21757;43.610;1.440;2023-05-23T01:40:14;17.20;99.90
35635;DHT22;21757;43.610;1.440;2023-05-23T01:42:40;17.10;99.90
35635;DHT22;21757;43.610;1.440;2023-05-23T01:45:07;17.10;99.90
35635;DHT22;21757;43.610;1.440;2023-05-23T01:47:34;17.10;99.90
35635;DHT22;21757;43.610;1.440;2023-05-23T01:50:01;17.10;99.90
35635;DHT22;21757;43.610;1.440;2023-05-23T01:52:29;17.10;99.90
35635;DHT22;21757;43.610;1.440;2023-05-23T01:54:55;17.00;99.90
35635;DHT22;21757;43.610;1.440;2023-05-23T01:57:21;17.00;99.90
35635;DHT22;21757;43.610;1.440;2023-05-23T01:59:48;17.00;99.90
35635;DHT22;21757;43.610;1.440;2023-05-23T02:02:14;17.00;99.90
35635;DHT22;21757;43.610;1.440;2023-05-23T02:04:40;17.00;99.90
35635;DHT22;21757;43.610;1.440;2023-05-23T02:07:06;17.00;99.90
35635;DHT22;21757;43.610;1.440;2023-05-23T02:09:31;17.00;99.90
35635;DHT22;21757;43.610;1.440;2023-05-23T02:11:57;17.00;99.90
35635;DHT22;21757;43.610;1.440;2023-05-23T02:14:23;16.90;99.90
35635;DHT22;21757;43.610;1.440;2023-05-23T02:16:51;16.90;99.90
35635;DHT22;21757;43.610;1.440;2023-05-23T02:19:17;16.80;99.90
35635;DHT22;21757;43.610;1.440;2023-05-23T02:21:42;16.80;99.90
35635;DHT22;21757;43.610;1.440;2023-05-23T02:24:08;16.70;99.90
35635;DHT22;21757;43.610;1.440;2023-05-23T02:26:34;16.70;99.90
35635;DHT22;21757;43.610;1.440;2023-05-23T02:29:00;16.60;99.90
35635;DHT22;21757;43.610;1.440;2023-05-23T02:31:25;16.60;99.90
35635;DHT22;21757;43.610;1.440;2023-05-23T02:33:52;16.60;99.90
35635;DHT22;21757;43.610;1.440;2023-05-23T02:36:18;16.50;99.90
35635;DHT22;21757;43.610;1.440;2023-05-23T02:38:43;16.50;99.90
35635;DHT22;21757;43.610;1.440;2023-05-23T02:41:09;16.40;99.90
35635;DHT22;21757;43.610;1.440;2023-05-23T02:43:35;16.30;99.90
35635;DHT22;21757;43.610;1.440;2023-05-23T02:46:00;16.30;99.90
35635;DHT22;21757;43.610;1.440;2023-05-23T02:48:26;16.20;99.90
35635;DHT22;21757;43.610;1.440;2023-05-23T02:50:52;16.20;99.90
35635;DHT22;21757;43.610;1.440;2023-05-23T02:53:18;16.20;99.90
35635;DHT22;21757;43.610;1.440;2023-05-23T02:55:43;16.10;99.90
35635;DHT22;21757;43.610;1.440;2023-05-23T02:58:09;16.10;99.90
35635;DHT22;21757;43.610;1.440;2023-05-23T03:00:35;16.00;99.90
35635;DHT22;21757;43.610;1.440;2023-05-23T03:03:01;16.00;99.90
35635;DHT22;21757;43.610;1.440;2023-05-23T03:05:27;15.90;99.90
35635;DHT22;21757;43.610;1.440;2023-05-23T03:07:52;15.90;99.90
35635;DHT22;21757;43.610;1.440;2023-05-23T03:10:19;15.90;99.90
35635;DHT22;21757;43.610;1.440;2023-05-23T03:12:45;15.80;99.90
35635;DHT22;21757;43.610;1.440;2023-05-23T03:15:11;15.80;99.90
35635;DHT22;21757;43.610;1.440;2023-05-23T03:17:37;15.80;99.90
35635;DHT22;21757;43.610;1.440;2023-05-23T03:20:04;15.80;99.90
35635;DHT22;21757;43.610;1.440;2023-05-23T03:22:30;15.70;99.90
35635;DHT22;21757;43.610;1.440;2023-05-23T03:24:56;15.70;99.90
35635;DHT22;21757;43.610;1.440;2023-05-23T03:27:21;15.70;99.90
35635;DHT22;21757;43.610;1.440;2023-05-23T03:29:47;15.60;99.90
35635;DHT22;21757;43.610;1.440;2023-05-23T03:32:13;15.70;99.90
35635;DHT22;21757;43.610;1.440;2023-05-23T03:34:38;15.60;99.90
35635;DHT22;21757;43.610;1.440;2023-05-23T03:37:04;15.60;99.90
35635;DHT22;21757;43.610;1.440;2023-05-23T03:39:30;15.50;99.90
35635;DHT22;21757;43.610;1.440;2023-05-23T03:41:56;15.50;99.90
35635;DHT22;21757;43.610;1.440;2023-05-23T03:44:21;15.50;99.90
35635;DHT22;21757;43.610;1.440;2023-05-23T03:46:47;15.50;99.90
35635;DHT22;21757;43.610;1.440;2023-05-23T03:49:13;15.40;99.90
35635;DHT22;21757;43.610;1.440;2023-05-23T03:51:39;15.40;99.90
35635;DHT22;21757;43.610;1.440;2023-05-23T03:54:05;15.40;99.90
35635;DHT22;21757;43.610;1.440;2023-05-23T03:56:31;15.40;99.90
35635;DHT22;21757;43.610;1.440;2023-05-23T03:58:56;15.40;99.90
35635;DHT22;21757;43.610;1.440;2023-05-23T04:01:22;15.40;99.90
35635;DHT22;21757;43.610;1.440;2023-05-23T04:03:48;15.30;99.90
35635;DHT22;21757;43.610;1.440;2023-05-23T04:06:13;15.30;99.90
35635;DHT22;21757;43.610;1.440;2023-05-23T04:08:41;15.30;99.90
35635;DHT22;21757;43.610;1.440;2023-05-23T04:11:08;15.30;99.90
35635;DHT22;21757;43.610;1.440;2023-05-23T04:13:33;15.20;99.90
35635;DHT22;21757;43.610;1.440;2023-05-23T04:16:00;15.20;99.90
35635;DHT22;21757;43.610;1.440;2023-05-23T04:18:30;15.20;99.90
35635;DHT22;21757;43.610;1.440;2023-05-23T04:20:57;15.20;99.90
35635;DHT22;21757;43.610;1.440;2023-05-23T04:23:23;15.20;99.90
35635;DHT22;21757;43.610;1.440;2023-05-23T04:25:49;15.20;99.90
35635;DHT22;21757;43.610;1.440;2023-05-23T04:28:16;15.20;99.90
35635;DHT22;21757;43.610;1.440;2023-05-23T04:30:42;15.20;99.90
35635;DHT22;21757;43.610;1.440;2023-05-23T04:33:08;15.20;99.90
35635;DHT22;21757;43.610;1.440;2023-05-23T04:35:35;15.20;99.90
35635;DHT22;21757;43.610;1.440;2023-05-23T04:38:03;15.20;99.90
35635;DHT22;21757;43.610;1.440;2023-05-23T04:40:29;15.20;99.90
35635;DHT22;21757;43.610;1.440;2023-05-23T04:42:56;15.30;99.90
35635;DHT22;21757;43.610;1.440;2023-05-23T04:45:22;15.30;99.90
35635;DHT22;21757;43.610;1.440;2023-05-23T04:47:47;15.30;99.90
35635;DHT22;21757;43.610;1.440;2023-05-23T04:50:13;15.40;99.90
35635;DHT22;21757;43.610;1.440;2023-05-23T04:52:40;15.50;99.90
35635;DHT22;21757;43.610;1.440;2023-05-23T04:55:06;15.60;99.90
35635;DHT22;21757;43.610;1.440;2023-05-23T04:57:33;15.70;99.90
35635;DHT22;21757;43.610;1.440;2023-05-23T04:59:59;15.80;99.90
35635;DHT22;21757;43.610;1.440;2023-05-23T05:02:26;15.80;99.90
35635;DHT22;21757;43.610;1.440;2023-05-23T05:04:52;15.90;99.90
35635;DHT22;21757;43.610;1.440;2023-05-23T05:07:17;15.90;99.90
35635;DHT22;21757;43.610;1.440;2023-05-23T05:09:43;16.10;99.90
35635;DHT22;21757;43.610;1.440;2023-05-23T05:12:09;16.30;99.90
35635;DHT22;21757;43.610;1.440;2023-05-23T05:14:35;16.50;99.90
35635;DHT22;21757;43.610;1.440;2023-05-23T05:17:01;16.90;99.90
35635;DHT22;21757;43.610;1.440;2023-05-23T05:19:28;16.80;99.90
35635;DHT22;21757;43.610;1.440;2023-05-23T05:21:54;16.80;99.90
35635;DHT22;21757;43.610;1.440;2023-05-23T05:24:19;16.90;99.90
35635;DHT22;21757;43.610;1.440;2023-05-23T05:26:47;16.80;99.90
35635;DHT22;21757;43.610;1.440;2023-05-23T05:29:13;16.80;99.90
35635;DHT22;21757;43.610;1.440;2023-05-23T05:31:39;16.70;99.90
35635;DHT22;21757;43.610;1.440;2023-05-23T05:34:05;16.80;99.90
35635;DHT22;21757;43.610;1.440;2023-05-23T05:36:30;16.90;99.90
35635;DHT22;21757;43.610;1.440;2023-05-23T05:38:56;16.90;99.90
35635;DHT22;21757;43.610;1.440;2023-05-23T05:41:22;17.00;99.90
35635;DHT22;21757;43.610;1.440;2023-05-23T05:43:48;16.90;99.90
35635;DHT22;21757;43.610;1.440;2023-05-23T05:46:13;16.90;99.90
35635;DHT22;21757;43.610;1.440;2023-05-23T05:48:39;16.90;99.90
35635;DHT22;21757;43.610;1.440;2023-05-23T05:51:05;16.90;99.90
35635;DHT22;21757;43.610;1.440;2023-05-23T05:53:31;17.00;99.90
35635;DHT22;21757;43.610;1.440;2023-05-23T05:55:57;16.80;99.90
35635;DHT22;21757;43.610;1.440;2023-05-23T05:58:23;16.80;99.90
35635;DHT22;21757;43.610;1.440;2023-05-23T06:00:48;16.60;99.90
35635;DHT22;21757;43.610;1.440;2023-05-23T06:03:15;16.60;99.90
35635;DHT22;21757;43.610;1.440;2023-05-23T06:05:40;16.70;99.90
35635;DHT22;21757;43.610;1.440;2023-05-23T06:08:06;16.70;99.90
35635;DHT22;21757;43.610;1.440;2023-05-23T06:10:32;16.60;99.90
35635;DHT22;21757;43.610;1.440;2023-05-23T06:12:58;16.80;99.90
35635;DHT22;21757;43.610;1.440;2023-05-23T06:15:24;16.80;99.90
35635;DHT22;21757;43.610;1.440;2023-05-23T06:17:51;16.90;99.90
35635;DHT22;21757;43.610;1.440;2023-05-23T06:20:16;17.00;99.90
35635;DHT22;21757;43.610;1.440;2023-05-23T06:22:42;17.10;99.90
35635;DHT22;21757;43.610;1.440;2023-05-23T06:25:08;17.00;99.90
35635;DHT22;21757;43.610;1.440;2023-05-23T06:27:33;17.20;99.90
35635;DHT22;21757;43.610;1.440;2023-05-23T06:29:59;17.30;99.90
35635;DHT22;21757;43.610;1.440;2023-05-23T06:32:25;17.60;99.90
35635;DHT22;21757;43.610;1.440;2023-05-23T06:34:51;17.60;99.90
35635;DHT22;21757;43.610;1.440;2023-05-23T06:37:16;17.60;99.90
35635;DHT22;21757;43.610;1.440;2023-05-23T06:39:42;17.60;99.90
35635;DHT22;21757;43.610;1.440;2023-05-23T06:42:08;17.50;99.90
35635;DHT22;21757;43.610;1.440;2023-05-23T06:44:34;17.50;99.90
35635;DHT22;21757;43.610;1.440;2023-05-23T06:47:00;17.40;99.90
35635;DHT22;21757;43.610;1.440;2023-05-23T06:49:25;17.40;99.90
35635;DHT22;21757;43.610;1.440;2023-05-23T06:51:51;17.40;99.90
35635;DHT22;21757;43.610;1.440;2023-05-23T06:54:17;17.40;99.90
35635;DHT22;21757;43.610;1.440;2023-05-23T06:56:43;17.50;99.90
35635;DHT22;21757;43.610;1.440;2023-05-23T06:59:09;17.30;99.90
35635;DHT22;21757;43.610;1.440;2023-05-23T07:01:35;17.50;99.90
35635;DHT22;21757;43.610;1.440;2023-05-23T07:04:01;17.50;99.90
35635;DHT22;21757;43.610;1.440;2023-05-23T07:06:27;17.70;99.90
35635;DHT22;21757;43.610;1.440;2023-05-23T07:08:53;17.70;99.90
35635;DHT22;21757;43.610;1.440;2023-05-23T07:13:34;17.80;99.90
35635;DHT22;21757;43.610;1.440;2023-05-23T07:16:00;18.00;99.90
35635;DHT22;21757;43.610;1.440;2023-05-23T07:18:25;18.30;99.90
35635;DHT22;21757;43.610;1.440;2023-05-23T07:20:51;18.30;99.90
35635;DHT22;21757;43.610;1.440;2023-05-23T07:23:16;18.20;99.90
35635;DHT22;21757;43.610;1.440;2023-05-23T07:25:42;18.30;99.90
35635;DHT22;21757;43.610;1.440;2023-05-23T07:28:08;18.20;99.90
35635;DHT22;21757;43.610;1.440;2023-05-23T07:30:34;18.60;99.90
35635;DHT22;21757;43.610;1.440;2023-05-23T07:33:00;18.70;99.90
35635;DHT22;21757;43.610;1.440;2023-05-23T07:35:26;18.90;99.90
35635;DHT22;21757;43.610;1.440;2023-05-23T07:37:52;19.00;99.90
35635;DHT22;21757;43.610;1.440;2023-05-23T07:40:18;19.30;99.90
35635;DHT22;21757;43.610;1.440;2023-05-23T07:42:44;19.60;99.90
35635;DHT22;21757;43.610;1.440;2023-05-23T07:45:10;19.90;99.90
35635;DHT22;21757;43.610;1.440;2023-05-23T07:47:36;19.80;99.90
35635;DHT22;21757;43.610;1.440;2023-05-23T07:50:02;19.70;99.90
35635;DHT22;21757;43.610;1.440;2023-05-23T07:52:31;19.70;99.90
35635;DHT22;21757;43.610;1.440;2023-05-23T07:54:57;20.00;99.90
35635;DHT22;21757;43.610;1.440;2023-05-23T07:57:23;20.40;99.90
35635;DHT22;21757;43.610;1.440;2023-05-23T07:59:51;20.40;99.90
35635;DHT22;21757;43.610;1.440;2023-05-23T08:02:17;20.40;99.90
35635;DHT22;21757;43.610;1.440;2023-05-23T08:04:43;20.30;99.90
35635;DHT22;21757;43.610;1.440;2023-05-23T08:07:09;20.40;99.90
35635;DHT22;21757;43.610;1.440;2023-05-23T08:09:36;20.60;99.90
35635;DHT22;21757;43.610;1.440;2023-05-23T08:12:02;20.70;99.90
35635;DHT22;21757;43.610;1.440;2023-05-23T08:14:28;20.80;99.90
35635;DHT22;21757;43.610;1.440;2023-05-23T08:16:54;21.10;99.90
35635;DHT22;21757;43.610;1.440;2023-05-23T08:19:20;21.30;99.90
35635;DHT22;21757;43.610;1.440;2023-05-23T08:21:46;21.50;99.90
35635;DHT22;21757;43.610;1.440;2023-05-23T08:24:11;21.70;99.90
35635;DHT22;21757;43.610;1.440;2023-05-23T08:26:40;21.30;99.90
35635;DHT22;21757;43.610;1.440;2023-05-23T08:29:06;21.40;99.90
35635;DHT22;21757;43.610;1.440;2023-05-23T08:31:34;21.60;99.90
35635;DHT22;21757;43.610;1.440;2023-05-23T08:34:00;21.60;99.90
35635;DHT22;21757;43.610;1.440;2023-05-23T08:36:26;21.90;99.90
35635;DHT22;21757;43.610;1.440;2023-05-23T08:38:52;21.90;99.90
35635;DHT22;21757;43.610;1.440;2023-05-23T08:41:22;22.20;99.90
35635;DHT22;21757;43.610;1.440;2023-05-23T08:43:48;22.30;99.90
35635;DHT22;21757;43.610;1.440;2023-05-23T08:46:15;22.70;99.90
35635;DHT22;21757;43.610;1.440;2023-05-23T08:48:42;23.20;99.90
35635;DHT22;21757;43.610;1.440;2023-05-23T08:51:13;23.20;99.90
35635;DHT22;21757;43.610;1.440;2023-05-23T08:53:42;23.40;99.90
35635;DHT22;21757;43.610;1.440;2023-05-23T08:56:12;23.00;99.90
35635;DHT22;21757;43.610;1.440;2023-05-23T08:58:38;22.40;99.90
35635;DHT22;21757;43.610;1.440;2023-05-23T09:01:07;22.60;99.90
35635;DHT22;21757;43.610;1.440;2023-05-23T09:03:38;22.50;99.90
35635;DHT22;21757;43.610;1.440;2023-05-23T09:06:08;22.50;99.90
35635;DHT22;21757;43.610;1.440;2023-05-23T09:10:09;23.30;99.90
35635;DHT22;21757;43.610;1.440;2023-05-23T09:12:35;23.70;99.90
35635;DHT22;21757;43.610;1.440;2023-05-23T09:15:09;24.00;99.90
35635;DHT22;21757;43.610;1.440;2023-05-23T09:17:35;23.90;99.90
35635;DHT22;21757;43.610;1.440;2023-05-23T09:20:02;23.60;99.90
35635;DHT22;21757;43.610;1.440;2023-05-23T09:22:31;23.50;99.90
35635;DHT22;21757;43.610;1.440;2023-05-23T09:24:57;23.40;99.90
35635;DHT22;21757;43.610;1.440;2023-05-23T09:27:23;23.50;99.90
35635;DHT22;21757;43.610;1.440;2023-05-23T09:29:49;23.50;99.90
35635;DHT22;21757;43.610;1.440;2023-05-23T09:32:19;24.00;99.90
35635;DHT22;21757;43.610;1.440;2023-05-23T09:34:59;24.00;99.90
35635;DHT22;21757;43.610;1.440;2023-05-23T09:37:35;23.70;99.90
35635;DHT22;21757;43.610;1.440;2023-05-23T09:40:12;23.60;99.90
35635;DHT22;21757;43.610;1.440;2023-05-23T09:42:42;23.90;99.90
35635;DHT22;21757;43.610;1.440;2023-05-23T09:45:09;23.80;99.90
35635;DHT22;21757;43.610;1.440;2023-05-23T09:47:35;24.30;99.90
35635;DHT22;21757;43.610;1.440;2023-05-23T09:50:01;24.40;99.90
35635;DHT22;21757;43.610;1.440;2023-05-23T09:52:36;24.20;99.90
35635;DHT22;21757;43.610;1.440;2023-05-23T09:55:06;24.00;99.90
35635;DHT22;21757;43.610;1.440;2023-05-23T09:57:34;24.00;99.90
35635;DHT22;21757;43.610;1.440;2023-05-23T10:00:03;24.10;99.90
35635;DHT22;21757;43.610;1.440;2023-05-23T10:08:26;23.80;99.90
35635;DHT22;21757;43.610;1.440;2023-05-23T10:13:33;24.20;99.90
35635;DHT22;21757;43.610;1.440;2023-05-23T10:16:06;24.70;99.90
35635;DHT22;21757;43.610;1.440;2023-05-23T10:18:43;24.90;99.90
35635;DHT22;21757;43.610;1.440;2023-05-23T10:21:11;24.20;99.90
35635;DHT22;21757;43.610;1.440;2023-05-23T10:23:41;23.90;99.90
35635;DHT22;21757;43.610;1.440;2023-05-23T10:26:07;24.40;99.90
35635;DHT22;21757;43.610;1.440;2023-05-23T10:28:33;24.30;99.90
35635;DHT22;21757;43.610;1.440;2023-05-23T10:30:59;24.00;99.90
35635;DHT22;21757;43.610;1.440;2023-05-23T10:33:33;24.40;99.90
35635;DHT22;21757;43.610;1.440;2023-05-23T10:36:07;24.70;99.90
35635;DHT22;21757;43.610;1.440;2023-05-23T10:38:40;24.90;99.90
35635;DHT22;21757;43.610;1.440;2023-05-23T10:41:57;24.50;99.90
35635;DHT22;21757;43.610;1.440;2023-05-23T10:44:48;24.40;99.90
35635;DHT22;21757;43.610;1.440;2023-05-23T10:47:02;24.40;99.90
35635;DHT22;21757;43.610;1.440;2023-05-23T10:49:41;25.10;99.90
35635;DHT22;21757;43.610;1.440;2023-05-23T10:52:12;25.50;99.90
35635;DHT22;21757;43.610;1.440;2023-05-23T10:54:49;25.70;99.90
35635;DHT22;21757;43.610;1.440;2023-05-23T10:57:21;25.50;99.90
35635;DHT22;21757;43.610;1.440;2023-05-23T10:59:49;25.80;99.90
35635;DHT22;21757;43.610;1.440;2023-05-23T11:02:17;25.70;99.90
35635;DHT22;21757;43.610;1.440;2023-05-23T11:04:44;25.80;99.90
35635;DHT22;21757;43.610;1.440;2023-05-23T11:07:29;25.60;99.90
35635;DHT22;21757;43.610;1.440;2023-05-23T11:10:13;25.80;99.90
35635;DHT22;21757;43.610;1.440;2023-05-23T11:12:40;26.10;99.90
35635;DHT22;21757;43.610;1.440;2023-05-23T11:15:27;25.30;99.90
35635;DHT22;21757;43.610;1.440;2023-05-23T11:17:54;24.90;99.90
35635;DHT22;21757;43.610;1.440;2023-05-23T11:20:22;24.90;99.90
35635;DHT22;21757;43.610;1.440;2023-05-23T11:23:11;24.60;99.90
35635;DHT22;21757;43.610;1.440;2023-05-23T11:28:12;23.50;99.90
35635;DHT22;21757;43.610;1.440;2023-05-23T11:30:39;23.60;99.90
35635;DHT22;21757;43.610;1.440;2023-05-23T11:33:09;23.90;99.90
35635;DHT22;21757;43.610;1.440;2023-05-23T11:35:41;24.40;99.90
35635;DHT22;21757;43.610;1.440;2023-05-23T11:38:08;24.00;99.90
35635;DHT22;21757;43.610;1.440;2023-05-23T11:40:38;23.90;99.90
35635;DHT22;21757;43.610;1.440;2023-05-23T11:43:09;23.60;99.90
35635;DHT22;21757;43.610;1.440;2023-05-23T11:45:37;23.80;99.90
35635;DHT22;21757;43.610;1.440;2023-05-23T11:48:09;24.00;99.90
35635;DHT22;21757;43.610;1.440;2023-05-23T11:50:44;23.90;99.90
35635;DHT22;21757;43.610;1.440;2023-05-23T11:53:10;24.30;99.90
35635;DHT22;21757;43.610;1.440;2023-05-23T11:55:39;24.30;99.90
35635;DHT22;21757;43.610;1.440;2023-05-23T11:58:04;24.50;99.90
35635;DHT22;21757;43.610;1.440;2023-05-23T12:00:30;24.40;99.90
35635;DHT22;21757;43.610;1.440;2023-05-23T12:02:56;24.70;99.90
35635;DHT22;21757;43.610;1.440;2023-05-23T12:05:22;24.80;99.90
35635;DHT22;21757;43.610;1.440;2023-05-23T12:07:48;24.40;99.90
35635;DHT22;21757;43.610;1.440;2023-05-23T12:10:15;24.10;99.90
35635;DHT22;21757;43.610;1.440;2023-05-23T12:12:41;24.00;99.90
35635;DHT22;21757;43.610;1.440;2023-05-23T12:15:08;24.20;99.90
35635;DHT22;21757;43.610;1.440;2023-05-23T12:17:36;23.80;99.90
35635;DHT22;21757;43.610;1.440;2023-05-23T12:20:05;23.90;99.90
35635;DHT22;21757;43.610;1.440;2023-05-23T12:22:32;23.80;99.90
35635;DHT22;21757;43.610;1.440;2023-05-23T12:24:57;24.30;99.90
35635;DHT22;21757;43.610;1.440;2023-05-23T12:27:32;24.50;99.90
35635;DHT22;21757;43.610;1.440;2023-05-23T12:30:15;24.50;99.90
35635;DHT22;21757;43.610;1.440;2023-05-23T12:32:42;24.70;99.90
35635;DHT22;21757;43.610;1.440;2023-05-23T12:35:10;24.30;99.90
35635;DHT22;21757;43.610;1.440;2023-05-23T12:37:40;24.20;99.90
35635;DHT22;21757;43.610;1.440;2023-05-23T12:40:15;24.10;99.90
35635;DHT22;21757;43.610;1.440;2023-05-23T12:42:54;24.30;99.90
35635;DHT22;21757;43.610;1.440;2023-05-23T12:45:31;25.00;99.90
35635;DHT22;21757;43.610;1.440;2023-05-23T12:47:58;25.40;99.90
35635;DHT22;21757;43.610;1.440;2023-05-23T12:50:24;25.60;99.90
35635;DHT22;21757;43.610;1.440;2023-05-23T12:52:50;25.50;99.90
35635;DHT22;21757;43.610;1.440;2023-05-23T12:55:16;25.30;99.90
35635;DHT22;21757;43.610;1.440;2023-05-23T12:57:42;25.00;99.90
35635;DHT22;21757;43.610;1.440;2023-05-23T13:00:09;24.90;99.90
35635;DHT22;21757;43.610;1.440;2023-05-23T13:02:36;24.90;99.90
35635;DHT22;21757;43.610;1.440;2023-05-23T13:05:02;25.20;99.90
35635;DHT22;21757;43.610;1.440;2023-05-23T13:07:27;25.60;99.90
35635;DHT22;21757;43.610;1.440;2023-05-23T13:09:53;25.60;99.90
35635;DHT22;21757;43.610;1.440;2023-05-23T13:12:19;25.20;99.90
35635;DHT22;21757;43.610;1.440;2023-05-23T13:14:45;25.20;99.90
35635;DHT22;21757;43.610;1.440;2023-05-23T13:17:11;25.30;99.90
35635;DHT22;21757;43.610;1.440;2023-05-23T13:19:37;25.20;99.90
35635;DHT22;21757;43.610;1.440;2023-05-23T13:22:05;24.90;99.90
35635;DHT22;21757;43.610;1.440;2023-05-23T13:24:30;25.00;99.90
35635;DHT22;21757;43.610;1.440;2023-05-23T13:26:56;25.30;99.90
35635;DHT22;21757;43.610;1.440;2023-05-23T13:29:22;25.80;99.90
35635;DHT22;21757;43.610;1.440;2023-05-23T13:31:47;25.80;99.90
35635;DHT22;21757;43.610;1.440;2023-05-23T13:34:13;26.00;99.90
35635;DHT22;21757;43.610;1.440;2023-05-23T13:36:39;25.90;99.90
35635;DHT22;21757;43.610;1.440;2023-05-23T13:39:05;25.80;99.90
35635;DHT22;21757;43.610;1.440;2023-05-23T13:41:31;26.20;99.90
35635;DHT22;21757;43.610;1.440;2023-05-23T13:43:57;26.30;99.90
35635;DHT22;21757;43.610;1.440;2023-05-23T13:46:22;26.20;99.90
35635;DHT22;21757;43.610;1.440;2023-05-23T13:48:48;25.90;99.90
35635;DHT22;21757;43.610;1.440;2023-05-23T13:51:14;26.00;99.90
35635;DHT22;21757;43.610;1.440;2023-05-23T13:53:39;25.50;99.90
35635;DHT22;21757;43.610;1.440;2023-05-23T13:56:05;25.40;99.90
35635;DHT22;21757;43.610;1.440;2023-05-23T13:58:31;25.70;99.90
35635;DHT22;21757;43.610;1.440;2023-05-23T14:00:56;26.20;99.90
35635;DHT22;21757;43.610;1.440;2023-05-23T14:03:22;26.40;99.90
35635;DHT22;21757;43.610;1.440;2023-05-23T14:07:22;27.20;99.90
35635;DHT22;21757;43.610;1.440;2023-05-23T14:09:47;26.50;99.90
35635;DHT22;21757;43.610;1.440;2023-05-23T14:12:13;26.10;99.90
35635;DHT22;21757;43.610;1.440;2023-05-23T14:14:39;26.20;99.90
35635;DHT22;21757;43.610;1.440;2023-05-23T14:17:05;26.30;99.90
35635;DHT22;21757;43.610;1.440;2023-05-23T14:19:30;26.20;99.90
35635;DHT22;21757;43.610;1.440;2023-05-23T14:21:56;26.30;99.90
35635;DHT22;21757;43.610;1.440;2023-05-23T14:24:22;26.20;99.90
35635;DHT22;21757;43.610;1.440;2023-05-23T14:26:47;26.20;99.90
35635;DHT22;21757;43.610;1.440;2023-05-23T14:29:14;25.70;99.90
35635;DHT22;21757;43.610;1.440;2023-05-23T14:31:40;25.40;99.90
35635;DHT22;21757;43.610;1.440;2023-05-23T14:34:06;25.80;99.90
35635;DHT22;21757;43.610;1.440;2023-05-23T14:36:32;26.20;99.90
35635;DHT22;21757;43.610;1.440;2023-05-23T14:38:57;26.50;99.90
35635;DHT22;21757;43.610;1.440;2023-05-23T14:41:23;27.10;99.90
35635;DHT22;21757;43.610;1.440;2023-05-23T14:43:49;27.50;99.90
35635;DHT22;21757;43.610;1.440;2023-05-23T14:46:16;27.60;99.90
35635;DHT22;21757;43.610;1.440;2023-05-23T14:48:42;28.00;99.90
35635;DHT22;21757;43.610;1.440;2023-05-23T14:51:08;27.80;99.90
35635;DHT22;21757;43.610;1.440;2023-05-23T14:53:34;27.70;99.90
35635;DHT22;21757;43.610;1.440;2023-05-23T14:56:00;27.40;99.90
35635;DHT22;21757;43.610;1.440;2023-05-23T14:58:26;27.40;99.90
35635;DHT22;21757;43.610;1.440;2023-05-23T15:00:51;27.30;99.90
35635;DHT22;21757;43.610;1.440;2023-05-23T15:03:17;27.50;99.90
35635;DHT22;21757;43.610;1.440;2023-05-23T15:05:43;27.30;99.90
35635;DHT22;21757;43.610;1.440;2023-05-23T15:08:10;27.20;99.90
35635;DHT22;21757;43.610;1.440;2023-05-23T15:10:36;26.90;99.90
35635;DHT22;21757;43.610;1.440;2023-05-23T15:13:02;27.20;99.90
35635;DHT22;21757;43.610;1.440;2023-05-23T15:15:30;27.30;99.90
35635;DHT22;21757;43.610;1.440;2023-05-23T15:18:02;27.50;99.90
35635;DHT22;21757;43.610;1.440;2023-05-23T15:20:32;27.60;99.90
35635;DHT22;21757;43.610;1.440;2023-05-23T15:22:57;27.30;99.90
35635;DHT22;21757;43.610;1.440;2023-05-23T15:25:23;27.10;99.90
35635;DHT22;21757;43.610;1.440;2023-05-23T15:27:51;27.20;99.90
35635;DHT22;21757;43.610;1.440;2023-05-23T15:30:18;27.40;99.90
35635;DHT22;21757;43.610;1.440;2023-05-23T15:32:44;27.00;99.90
35635;DHT22;21757;43.610;1.440;2023-05-23T15:35:09;27.40;99.90
35635;DHT22;21757;43.610;1.440;2023-05-23T15:37:35;27.60;99.90
35635;DHT22;21757;43.610;1.440;2023-05-23T15:40:01;27.60;99.90
35635;DHT22;21757;43.610;1.440;2023-05-23T15:42:26;27.40;99.90
35635;DHT22;21757;43.610;1.440;2023-05-23T15:44:52;27.40;99.90
35635;DHT22;21757;43.610;1.440;2023-05-23T15:47:18;27.20;99.90
35635;DHT22;21757;43.610;1.440;2023-05-23T15:49:45;27.20;99.90
35635;DHT22;21757;43.610;1.440;2023-05-23T15:52:11;27.20;99.90
35635;DHT22;21757;43.610;1.440;2023-05-23T15:54:37;27.10;99.90